San Diego, California
Traffic Map
Current Weather Conditions
San Diego, California
Scattered Clouds
Scattered Clouds
79°
Feels Like: 81°
Wind Chill: 79° Ceiling: Unl
Heat Index: 81° Visibility: 10mi
Dew Point: 64° Wind: 8mph
Humidity: 60% Direction: 280° (W)
Pressure: 29.83in Gusts: 0mph
Raw Report DataKSAN 241951Z 28007KT 10SM FEW010 SCT070 SCT250 26/18 A2983 RMK AO2 SLP102 T02610178 $
Traffic Incident Summary
Active as of:
Severity:
Category:
InformationThere was an issue retrieving the traffic information for this location. Please try a different location or try again shortly.
Advertisements
Track Severe Weather on mobile